Time;durP1;ratioP1;P1;durP2;ratioP2;P2;SDS_P1;SDS_P2;PMS_P1;PMS_P2;Temp;Humidity;BMP_temperature;BMP_pressure;BME280_temperature;BME280_humidity;BME280_pressure;Samples;Min_cycle;Max_cycle;Signal;HPM_P1;HPM_P2
2021/07/24 00:00:59;;;;;;;5.20;4.13;;;;;;;;;;5011966;28;20516;-82
2021/07/24 00:03:26;;;;;;;5.90;4.53;;;;;;;;;;5011508;28;20030;-82
2021/07/24 00:05:52;;;;;;;5.78;4.68;;;;;;;;;;5003128;28;20065;-82
2021/07/24 00:08:17;;;;;;;5.55;4.78;;;;;;;;;;5012113;28;20492;-82
2021/07/24 00:10:42;;;;;;;5.75;4.43;;;;;;;;;;5011471;28;20484;-82
2021/07/24 00:13:08;;;;;;;6.20;4.60;;;;;;;;;;5010673;28;20404;-82
2021/07/24 00:15:34;;;;;;;6.07;4.20;;;;;;;;;;5011463;28;20046;-82
2021/07/24 00:17:59;;;;;;;6.25;5.00;;;;;;;;;;5011394;28;20030;-82
2021/07/24 00:20:25;;;;;;;6.47;4.70;;;;;;;;;;4978703;28;20026;-82
2021/07/24 00:22:50;;;;;;;6.47;5.05;;;;;;;;;;4993703;28;20137;-81
2021/07/24 00:25:16;;;;;;;6.30;4.53;;;;;;;;;;5027690;28;20404;-82
2021/07/24 00:27:41;;;;;;;6.18;4.70;;;;;;;;;;5027532;28;20030;-82
2021/07/24 00:30:07;;;;;;;6.57;4.75;;;;;;;;;;5011386;28;20072;-82
2021/07/24 00:32:33;;;;;;;7.57;5.38;;;;;;;;;;5011030;28;20049;-82
2021/07/24 00:34:58;;;;;;;6.57;4.80;;;;;;;;;;5027612;28;20064;-80
2021/07/24 00:37:24;;;;;;;5.63;4.38;;;;;;;;;;5006164;28;20037;-80
2021/07/24 00:39:49;;;;;;;7.72;5.70;;;;;;;;;;5047449;28;20069;-81
2021/07/24 00:42:16;;;;;;;6.57;5.07;;;;;;;;;;5015620;28;20120;-80
2021/07/24 00:44:45;;;;;;;6.75;4.68;;;;;;;;;;5027275;28;20093;-80
2021/07/24 00:47:14;;;;;;;6.22;5.43;;;;;;;;;;5009366;28;20113;-82
2021/07/24 00:49:39;;;;;;;5.68;4.65;;;;;;;;;;4975559;28;20046;-83
2021/07/24 00:52:05;;;;;;;5.50;4.80;;;;;;;;;;5009003;28;20034;-82
2021/07/24 00:54:31;;;;;;;5.82;5.22;;;;;;;;;;4994453;28;20186;-82
2021/07/24 00:56:56;;;;;;;6.05;5.13;;;;;;;;;;4977657;28;20129;-84
2021/07/24 00:59:22;;;;;;;7.75;5.78;;;;;;;;;;5027704;28;20060;-85
2021/07/24 01:01:48;;;;;;;5.60;4.65;;;;;;;;;;5011111;28;20096;-85
2021/07/24 01:04:15;;;;;;;7.75;4.88;;;;;;;;;;5010476;28;20042;-85
2021/07/24 01:06:43;;;;;;;6.80;5.18;;;;;;;;;;5010067;28;20495;-85
2021/07/24 01:09:08;;;;;;;5.88;4.85;;;;;;;;;;5011348;28;20034;-85
2021/07/24 01:11:35;;;;;;;7.05;4.78;;;;;;;;;;5011082;28;20116;-86
2021/07/24 01:14:01;;;;;;;5.13;4.47;;;;;;;;;;5010701;28;20041;-86
2021/07/24 01:16:28;;;;;;;5.78;4.45;;;;;;;;;;5024028;28;20042;-85
2021/07/24 01:18:53;;;;;;;7.07;5.07;;;;;;;;;;5007480;28;20038;-85
2021/07/24 01:21:27;;;;;;;5.90;4.95;;;;;;;;;;4978117;28;20057;-85
2021/07/24 01:23:53;;;;;;;6.10;4.25;;;;;;;;;;4995386;28;20030;-85
2021/07/24 01:26:29;;;;;;;6.57;4.93;;;;;;;;;;5010727;28;20125;-85
2021/07/24 01:28:55;;;;;;;6.60;5.22;;;;;;;;;;5013117;28;20033;-85
2021/07/24 01:31:20;;;;;;;6.25;5.25;;;;;;;;;;5012955;28;20069;-84
2021/07/24 01:33:46;;;;;;;6.18;5.57;;;;;;;;;;4978843;28;20037;-85
2021/07/24 01:36:11;;;;;;;7.35;5.47;;;;;;;;;;4979804;28;20030;-85
2021/07/24 01:38:38;;;;;;;8.00;5.50;;;;;;;;;;4996616;28;20038;-85
2021/07/24 01:41:11;;;;;;;6.20;5.03;;;;;;;;;;5007133;28;20054;-85
2021/07/24 01:43:38;;;;;;;5.32;4.82;;;;;;;;;;5006677;28;20034;-84
2021/07/24 01:46:05;;;;;;;6.72;4.68;;;;;;;;;;4998132;28;20034;-84
2021/07/24 01:48:45;;;;;;;7.05;5.78;;;;;;;;;;4990885;28;20062;-84
2021/07/24 01:54:03;;;;;;;6.25;5.60;;;;;;;;;;5005482;28;20069;-85
2021/07/24 01:56:29;;;;;;;7.80;5.32;;;;;;;;;;4978225;28;20118;-84
2021/07/24 01:58:55;;;;;;;8.07;5.82;;;;;;;;;;4994481;28;20033;-84
2021/07/24 02:01:22;;;;;;;6.38;5.30;;;;;;;;;;4978026;28;20042;-84
2021/07/24 02:04:09;;;;;;;5.22;4.32;;;;;;;;;;5010049;28;20041;-84
2021/07/24 02:06:35;;;;;;;6.57;5.45;;;;;;;;;;5006998;28;20129;-85
2021/07/24 02:09:02;;;;;;;7.20;4.80;;;;;;;;;;5009796;28;20044;-85
2021/07/24 02:11:27;;;;;;;6.30;5.63;;;;;;;;;;5023116;28;20402;-84
2021/07/24 02:13:54;;;;;;;5.80;4.88;;;;;;;;;;4996721;28;20041;-85
2021/07/24 02:16:19;;;;;;;8.27;5.97;;;;;;;;;;5026718;28;20042;-84
2021/07/24 02:18:44;;;;;;;6.22;5.00;;;;;;;;;;5015636;28;20042;-85
2021/07/24 02:21:11;;;;;;;6.03;5.43;;;;;;;;;;4978011;28;20038;-84
2021/07/24 02:23:37;;;;;;;5.45;4.85;;;;;;;;;;5027193;28;20034;-84
2021/07/24 02:26:03;;;;;;;5.57;5.07;;;;;;;;;;5027089;28;20066;-84
2021/07/24 02:28:30;;;;;;;6.00;5.32;;;;;;;;;;5027012;28;20117;-85
2021/07/24 02:30:57;;;;;;;6.45;5.30;;;;;;;;;;5014239;28;20048;-85
2021/07/24 02:33:23;;;;;;;6.00;5.22;;;;;;;;;;5038189;28;20076;-85
2021/07/24 02:35:49;;;;;;;7.25;5.38;;;;;;;;;;5012747;28;20120;-85
2021/07/24 02:38:17;;;;;;;6.43;5.18;;;;;;;;;;5010147;28;20547;-84
2021/07/24 02:40:43;;;;;;;7.05;4.85;;;;;;;;;;5010393;28;20038;-85
2021/07/24 02:43:08;;;;;;;5.70;5.10;;;;;;;;;;5010485;28;20046;-85
2021/07/24 02:45:35;;;;;;;5.72;5.13;;;;;;;;;;4996422;28;20048;-85
2021/07/24 02:48:01;;;;;;;6.95;5.70;;;;;;;;;;4997026;28;20033;-85
2021/07/24 02:50:27;;;;;;;7.68;5.22;;;;;;;;;;5029572;28;20038;-85
2021/07/24 02:52:54;;;;;;;5.95;5.30;;;;;;;;;;5029776;28;20038;-85
2021/07/24 02:55:20;;;;;;;6.68;5.55;;;;;;;;;;5013227;28;20038;-85
2021/07/24 02:57:45;;;;;;;5.53;4.72;;;;;;;;;;5013402;28;20400;-85
2021/07/24 03:00:11;;;;;;;6.22;5.03;;;;;;;;;;5013441;28;20049;-85
2021/07/24 03:02:36;;;;;;;5.40;4.53;;;;;;;;;;5029385;28;20193;-85
2021/07/24 03:05:02;;;;;;;5.95;5.07;;;;;;;;;;5029624;28;20033;-85
2021/07/24 03:07:27;;;;;;;6.82;4.82;;;;;;;;;;4993885;28;20030;-85
2021/07/24 03:09:54;;;;;;;5.85;5.25;;;;;;;;;;4993632;28;20173;-85
2021/07/24 03:12:19;;;;;;;6.03;5.28;;;;;;;;;;4993317;28;20089;-85
2021/07/24 03:14:45;;;;;;;7.15;5.40;;;;;;;;;;4993030;28;20046;-85
2021/07/24 03:17:10;;;;;;;8.18;5.28;;;;;;;;;;4976900;28;20112;-85
2021/07/24 03:19:36;;;;;;;6.80;5.65;;;;;;;;;;4993643;28;20217;-85
2021/07/24 03:22:03;;;;;;;6.13;5.53;;;;;;;;;;4992697;28;20034;-84
2021/07/24 03:24:30;;;;;;;7.00;5.65;;;;;;;;;;5008798;28;20510;-85
2021/07/24 03:26:57;;;;;;;6.47;5.47;;;;;;;;;;4992250;28;20045;-85
2021/07/24 03:29:24;;;;;;;6.45;5.45;;;;;;;;;;4992532;28;20044;-85
2021/07/24 03:31:52;;;;;;;7.38;5.55;;;;;;;;;;4993209;28;20034;-85
2021/07/24 03:34:17;;;;;;;8.00;5.50;;;;;;;;;;4993316;28;20501;-85
2021/07/24 03:36:43;;;;;;;7.20;5.68;;;;;;;;;;4985216;28;20030;-85
2021/07/24 03:39:09;;;;;;;8.32;5.20;;;;;;;;;;5000804;28;20035;-84
2021/07/24 03:41:36;;;;;;;5.55;4.82;;;;;;;;;;5009277;28;20038;-85
2021/07/24 03:44:03;;;;;;;7.28;6.22;;;;;;;;;;5009026;28;20038;-85
2021/07/24 03:46:29;;;;;;;6.00;5.40;;;;;;;;;;5005360;28;20463;-85
2021/07/24 03:48:56;;;;;;;5.82;5.13;;;;;;;;;;4996256;28;20428;-86
2021/07/24 03:51:24;;;;;;;6.25;5.18;;;;;;;;;;5008609;28;20085;-84
2021/07/24 03:53:51;;;;;;;7.75;5.28;;;;;;;;;;4992697;28;20041;-84
2021/07/24 03:56:17;;;;;;;6.70;5.65;;;;;;;;;;4995481;28;20030;-85
2021/07/24 03:58:44;;;;;;;6.28;5.57;;;;;;;;;;5028712;28;20070;-85
2021/07/24 04:01:10;;;;;;;7.20;6.20;;;;;;;;;;4996324;28;20041;-85
2021/07/24 04:03:36;;;;;;;7.13;6.00;;;;;;;;;;5012005;28;20072;-86
2021/07/24 04:06:02;;;;;;;6.30;5.55;;;;;;;;;;5012074;28;20081;-85
2021/07/24 04:08:29;;;;;;;6.45;5.80;;;;;;;;;;5011710;28;20037;-85
2021/07/24 04:10:56;;;;;;;6.80;5.68;;;;;;;;;;5011340;28;20036;-85
2021/07/24 04:13:23;;;;;;;6.80;5.22;;;;;;;;;;5011813;28;20057;-85
2021/07/24 04:15:49;;;;;;;8.15;5.78;;;;;;;;;;5023593;28;20160;-85
2021/07/24 04:18:17;;;;;;;6.78;5.40;;;;;;;;;;5027724;28;20045;-85
2021/07/24 04:20:43;;;;;;;6.13;5.15;;;;;;;;;;4978593;28;20065;-85
2021/07/24 04:23:09;;;;;;;8.02;5.57;;;;;;;;;;5017249;28;20034;-85
2021/07/24 04:25:34;;;;;;;7.47;5.90;;;;;;;;;;5021194;28;20034;-86
2021/07/24 04:28:02;;;;;;;7.40;5.50;;;;;;;;;;4999099;28;20052;-86
2021/07/24 04:30:28;;;;;;;6.90;6.18;;;;;;;;;;5048341;28;20041;-86
2021/07/24 04:32:54;;;;;;;8.73;6.43;;;;;;;;;;5031611;28;20048;-86
2021/07/24 04:35:20;;;;;;;6.45;5.65;;;;;;;;;;5024546;28;20029;-86
2021/07/24 04:37:46;;;;;;;7.63;5.55;;;;;;;;;;5009432;28;20043;-86
2021/07/24 04:40:12;;;;;;;6.88;6.10;;;;;;;;;;5025654;28;20033;-86
2021/07/24 04:42:37;;;;;;;7.57;5.90;;;;;;;;;;5027325;28;20042;-87
2021/07/24 04:45:04;;;;;;;6.97;6.25;;;;;;;;;;5027961;28;20037;-85
2021/07/24 04:47:32;;;;;;;6.50;5.70;;;;;;;;;;5023777;28;20038;-85
2021/07/24 04:49:57;;;;;;;6.65;5.95;;;;;;;;;;5008569;28;20037;-86
2021/07/24 04:52:24;;;;;;;6.80;5.88;;;;;;;;;;4998269;28;20080;-87
2021/07/24 04:54:49;;;;;;;6.47;5.82;;;;;;;;;;5011191;28;20029;-86
2021/07/24 04:57:17;;;;;;;7.47;6.18;;;;;;;;;;4961300;28;20037;-86
2021/07/24 04:59:48;;;;;;;7.85;6.68;;;;;;;;;;5008712;28;20116;-86
2021/07/24 05:02:17;;;;;;;6.78;6.07;;;;;;;;;;5031035;28;20033;-84
2021/07/24 05:04:43;;;;;;;9.90;6.65;;;;;;;;;;4962767;28;20480;-85
2021/07/24 05:07:11;;;;;;;7.38;6.57;;;;;;;;;;4978894;28;20037;-86
2021/07/24 05:09:37;;;;;;;7.38;6.53;;;;;;;;;;4962908;28;20124;-84
2021/07/24 05:12:03;;;;;;;9.27;6.55;;;;;;;;;;4978742;28;20172;-84
2021/07/24 05:14:28;;;;;;;7.72;6.93;;;;;;;;;;4962880;28;20042;-86
2021/07/24 05:17:12;;;;;;;9.10;6.93;;;;;;;;;;4981651;28;20530;-86
2021/07/24 05:19:42;;;;;;;6.57;5.88;;;;;;;;;;5030841;28;20029;-85
2021/07/24 05:22:08;;;;;;;7.68;6.50;;;;;;;;;;4997051;28;20034;-85
2021/07/24 05:24:37;;;;;;;8.90;6.85;;;;;;;;;;5046367;28;20041;-85
2021/07/24 05:27:04;;;;;;;9.25;6.28;;;;;;;;;;5029711;28;20092;-85
2021/07/24 05:29:30;;;;;;;7.63;6.65;;;;;;;;;;5023695;28;20092;-85
2021/07/24 05:31:57;;;;;;;6.95;6.25;;;;;;;;;;5010242;28;20116;-85
2021/07/24 05:34:23;;;;;;;7.45;5.85;;;;;;;;;;5010372;28;20484;-85
2021/07/24 05:36:52;;;;;;;7.75;7.05;;;;;;;;;;5025645;28;20041;-85
2021/07/24 05:39:18;;;;;;;10.60;7.07;;;;;;;;;;4998157;28;20030;-85
2021/07/24 05:41:45;;;;;;;7.93;6.40;;;;;;;;;;5030927;28;20517;-85
2021/07/24 05:44:13;;;;;;;7.15;6.07;;;;;;;;;;5027147;28;20037;-86
2021/07/24 05:46:40;;;;;;;8.68;7.60;;;;;;;;;;4994162;28;20157;-85
2021/07/24 05:49:06;;;;;;;8.18;7.13;;;;;;;;;;5022385;28;20100;-86
2021/07/24 05:51:32;;;;;;;7.93;6.70;;;;;;;;;;4978085;28;20072;-85
2021/07/24 05:53:58;;;;;;;9.45;7.40;;;;;;;;;;4964603;28;20064;-85
2021/07/24 05:56:24;;;;;;;7.70;6.90;;;;;;;;;;4978526;28;20065;-86
2021/07/24 05:58:49;;;;;;;7.68;6.70;;;;;;;;;;5018057;28;20030;-84
2021/07/24 06:01:15;;;;;;;7.60;6.82;;;;;;;;;;5049617;28;20053;-83
2021/07/24 06:03:41;;;;;;;8.40;6.55;;;;;;;;;;5033638;28;20103;-84
2021/07/24 06:06:06;;;;;;;7.32;6.53;;;;;;;;;;5033870;28;20561;-83
2021/07/24 06:08:32;;;;;;;7.65;6.85;;;;;;;;;;5033580;28;20033;-83
2021/07/24 06:10:58;;;;;;;7.03;6.32;;;;;;;;;;5032740;28;20496;-83
2021/07/24 06:13:24;;;;;;;8.10;6.55;;;;;;;;;;5013574;28;20045;-83
2021/07/24 06:15:50;;;;;;;7.18;6.18;;;;;;;;;;5013479;28;20038;-83
2021/07/24 06:18:15;;;;;;;7.32;6.55;;;;;;;;;;5013835;28;20535;-83
2021/07/24 06:20:41;;;;;;;7.57;6.78;;;;;;;;;;4997559;28;20042;-84
2021/07/24 06:23:06;;;;;;;7.38;6.68;;;;;;;;;;5013795;28;20053;-83
2021/07/24 06:25:35;;;;;;;7.40;6.07;;;;;;;;;;5013754;28;20041;-84
2021/07/24 06:28:03;;;;;;;7.90;6.85;;;;;;;;;;5030033;28;20057;-84
2021/07/24 06:30:29;;;;;;;8.07;7.22;;;;;;;;;;5013488;28;20112;-83
2021/07/24 06:32:55;;;;;;;7.97;6.60;;;;;;;;;;5012702;28;20049;-83
2021/07/24 06:35:21;;;;;;;9.98;6.72;;;;;;;;;;5011152;28;20050;-83
2021/07/24 06:37:46;;;;;;;7.15;6.45;;;;;;;;;;5025719;28;20515;-83
2021/07/24 06:40:12;;;;;;;8.55;6.85;;;;;;;;;;5049129;28;20042;-84
2021/07/24 06:42:37;;;;;;;7.72;6.88;;;;;;;;;;5049373;28;20055;-83
2021/07/24 06:45:05;;;;;;;7.38;6.68;;;;;;;;;;5032378;28;20562;-84
2021/07/24 06:47:30;;;;;;;7.60;6.40;;;;;;;;;;5005904;28;20045;-84
2021/07/24 06:49:56;;;;;;;7.80;6.72;;;;;;;;;;4993809;28;20850;-83
2021/07/24 06:52:21;;;;;;;9.48;7.13;;;;;;;;;;4993455;28;20038;-83
2021/07/24 06:54:48;;;;;;;9.93;6.97;;;;;;;;;;4993401;28;20039;-84
2021/07/24 06:57:15;;;;;;;7.80;7.00;;;;;;;;;;5001241;28;20066;-84
2021/07/24 06:59:41;;;;;;;8.30;6.78;;;;;;;;;;5000664;28;20065;-83
2021/07/24 07:02:06;;;;;;;8.00;6.95;;;;;;;;;;5008678;28;20072;-83
2021/07/24 07:04:32;;;;;;;8.32;6.18;;;;;;;;;;5031354;28;20045;-83
2021/07/24 07:06:58;;;;;;;7.82;6.80;;;;;;;;;;5049442;28;20125;-84
2021/07/24 07:09:23;;;;;;;7.10;6.25;;;;;;;;;;5032761;28;20120;-84
2021/07/24 07:11:49;;;;;;;7.82;6.38;;;;;;;;;;5032535;28;20400;-84
2021/07/24 07:14:14;;;;;;;8.60;6.70;;;;;;;;;;5031990;28;20041;-83
2021/07/24 07:16:41;;;;;;;10.18;6.70;;;;;;;;;;5046864;28;20048;-83
2021/07/24 07:19:07;;;;;;;7.43;5.80;;;;;;;;;;5012552;28;20467;-84
2021/07/24 07:21:33;;;;;;;8.70;6.50;;;;;;;;;;5009091;28;20040;-83
2021/07/24 07:23:58;;;;;;;7.90;7.15;;;;;;;;;;5028619;28;20046;-83
2021/07/24 07:26:30;;;;;;;9.45;7.40;;;;;;;;;;5007528;28;20041;-84
2021/07/24 07:28:58;;;;;;;7.85;6.78;;;;;;;;;;4997159;28;20042;-84
2021/07/24 07:31:24;;;;;;;12.05;9.75;;;;;;;;;;5049739;28;20034;-82
2021/07/24 07:33:50;;;;;;;13.60;10.48;;;;;;;;;;4999417;28;20493;-84
2021/07/24 07:36:15;;;;;;;18.08;11.52;;;;;;;;;;4997632;28;20091;-83
2021/07/24 07:38:41;;;;;;;14.05;10.43;;;;;;;;;;4998093;28;20070;-83
2021/07/24 07:41:07;;;;;;;14.30;10.40;;;;;;;;;;4996111;28;20060;-83
2021/07/24 07:43:33;;;;;;;12.63;9.57;;;;;;;;;;4974558;28;20081;-83
2021/07/24 07:45:58;;;;;;;11.48;10.10;;;;;;;;;;4992804;28;20405;-83
2021/07/24 07:48:24;;;;;;;15.13;12.52;;;;;;;;;;5025281;28;20033;-84
2021/07/24 07:50:52;;;;;;;16.42;11.50;;;;;;;;;;5001718;28;20485;-84
2021/07/24 07:53:18;;;;;;;14.82;11.35;;;;;;;;;;5008686;28;20101;-83
2021/07/24 07:55:45;;;;;;;12.60;10.40;;;;;;;;;;5022549;28;20437;-83
2021/07/24 07:58:11;;;;;;;11.98;9.95;;;;;;;;;;5012178;28;20088;-83
2021/07/24 08:00:37;;;;;;;12.57;10.63;;;;;;;;;;5001824;28;20516;-84
2021/07/24 08:03:03;;;;;;;12.15;10.10;;;;;;;;;;4999088;28;20038;-83
2021/07/24 08:05:29;;;;;;;12.32;10.38;;;;;;;;;;5002642;28;20464;-83
2021/07/24 08:07:55;;;;;;;12.23;10.55;;;;;;;;;;4995342;28;20117;-83
2021/07/24 08:10:21;;;;;;;13.48;10.55;;;;;;;;;;5012094;28;20076;-83
2021/07/24 08:12:47;;;;;;;12.98;11.07;;;;;;;;;;4981064;28;20497;-84
2021/07/24 08:15:14;;;;;;;11.93;10.35;;;;;;;;;;5014923;28;20041;-84
2021/07/24 08:17:40;;;;;;;14.80;11.70;;;;;;;;;;5015139;28;20029;-84
2021/07/24 08:20:07;;;;;;;16.58;11.13;;;;;;;;;;5006250;28;20022;-85
2021/07/24 08:22:33;;;;;;;13.82;11.93;;;;;;;;;;4976071;28;20070;-84
2021/07/24 08:24:59;;;;;;;12.00;10.77;;;;;;;;;;4992042;28;20030;-85
2021/07/24 08:27:25;;;;;;;14.10;11.20;;;;;;;;;;4992163;28;20085;-85
2021/07/24 08:29:52;;;;;;;13.43;10.93;;;;;;;;;;4982699;28;20493;-85
2021/07/24 08:32:18;;;;;;;12.80;11.50;;;;;;;;;;4975971;28;20049;-84
2021/07/24 08:34:52;;;;;;;12.13;10.73;;;;;;;;;;4986914;28;20025;-84
2021/07/24 08:37:19;;;;;;;17.48;12.15;;;;;;;;;;5009348;28;20148;-84
2021/07/24 08:39:45;;;;;;;21.13;16.15;;;;;;;;;;5027771;28;20046;-85
2021/07/24 08:42:36;;;;;;;16.55;12.45;;;;;;;;;;5028242;28;20038;-85
2021/07/24 08:45:03;;;;;;;16.05;12.40;;;;;;;;;;5008704;28;20042;-83
2021/07/24 08:47:29;;;;;;;17.10;13.15;;;;;;;;;;5007770;28;20073;-84
2021/07/24 08:49:56;;;;;;;14.48;12.98;;;;;;;;;;4992196;28;20061;-84
2021/07/24 08:52:26;;;;;;;16.67;12.85;;;;;;;;;;5008175;28;20124;-84
2021/07/24 08:54:52;;;;;;;14.25;12.45;;;;;;;;;;4991394;28;20456;-84
2021/07/24 08:57:18;;;;;;;13.88;11.32;;;;;;;;;;4991647;28;20057;-84
2021/07/24 08:59:45;;;;;;;13.93;11.73;;;;;;;;;;4991816;28;20404;-84
2021/07/24 09:02:11;;;;;;;14.00;11.57;;;;;;;;;;5008347;28;20096;-84
2021/07/24 09:04:37;;;;;;;12.90;11.32;;;;;;;;;;4991506;28;20030;-84
2021/07/24 09:07:03;;;;;;;12.25;10.52;;;;;;;;;;5007674;28;20037;-85
2021/07/24 09:09:31;;;;;;;12.55;10.27;;;;;;;;;;5008002;28;20505;-85
2021/07/24 09:11:57;;;;;;;11.55;10.35;;;;;;;;;;5011321;28;20479;-85
2021/07/24 09:14:23;;;;;;;12.50;10.32;;;;;;;;;;4994780;28;20041;-85
2021/07/24 09:16:50;;;;;;;11.82;10.20;;;;;;;;;;4978499;28;20030;-85
2021/07/24 09:19:17;;;;;;;12.07;10.30;;;;;;;;;;5027531;28;20562;-84
2021/07/24 09:21:42;;;;;;;11.70;9.45;;;;;;;;;;4978453;28;20044;-83
2021/07/24 09:24:17;;;;;;;13.82;10.50;;;;;;;;;;5006066;28;20408;-84
2021/07/24 09:26:43;;;;;;;15.88;13.05;;;;;;;;;;5027427;28;20124;-84
2021/07/24 09:29:16;;;;;;;17.33;13.32;;;;;;;;;;5017467;28;20029;-84
2021/07/24 09:31:43;;;;;;;16.70;13.48;;;;;;;;;;4976602;28;20084;-84
2021/07/24 09:34:11;;;;;;;18.63;13.40;;;;;;;;;;5010695;28;20025;-83
2021/07/24 09:36:38;;;;;;;16.38;12.45;;;;;;;;;;5018036;28;20512;-83
2021/07/24 09:39:15;;;;;;;14.77;12.27;;;;;;;;;;4982624;28;20396;-83
2021/07/24 09:41:45;;;;;;;14.38;11.25;;;;;;;;;;4999710;28;20037;-83
2021/07/24 09:44:10;;;;;;;13.90;10.07;;;;;;;;;;5010965;28;20084;-83
2021/07/24 09:46:37;;;;;;;13.45;10.65;;;;;;;;;;5010991;28;20047;-83
2021/07/24 09:49:11;;;;;;;13.30;10.45;;;;;;;;;;4994791;28;20038;-83
2021/07/24 09:51:37;;;;;;;11.00;9.63;;;;;;;;;;4997841;28;20935;-83
2021/07/24 09:54:04;;;;;;;12.15;9.75;;;;;;;;;;4982662;28;20092;-83
2021/07/24 09:56:43;;;;;;;13.52;10.05;;;;;;;;;;4994457;28;20041;-83
2021/07/24 09:59:22;;;;;;;11.68;9.68;;;;;;;;;;4997428;28;20061;-83
2021/07/24 10:02:01;;;;;;;11.23;8.95;;;;;;;;;;4994919;28;20026;-83
2021/07/24 10:04:39;;;;;;;10.70;9.63;;;;;;;;;;4994187;28;20085;-83
2021/07/24 10:07:08;;;;;;;11.13;9.85;;;;;;;;;;4994011;28;20026;-84
2021/07/24 10:09:37;;;;;;;11.25;9.68;;;;;;;;;;5028660;28;20089;-84
2021/07/24 10:12:05;;;;;;;12.10;10.30;;;;;;;;;;5030694;28;20148;-84
2021/07/24 10:14:31;;;;;;;10.38;8.77;;;;;;;;;;4977902;28;20042;-86
2021/07/24 10:16:58;;;;;;;11.35;9.65;;;;;;;;;;5019466;28;20076;-86
2021/07/24 10:19:24;;;;;;;11.38;9.10;;;;;;;;;;5012099;28;20037;-87
2021/07/24 10:21:52;;;;;;;11.68;9.88;;;;;;;;;;4998278;28;20038;-87
2021/07/24 10:24:19;;;;;;;10.57;9.32;;;;;;;;;;4998028;28;20116;-86
2021/07/24 10:27:17;;;;;;;10.00;8.80;;;;;;;;;;4998236;28;20405;-86
2021/07/24 10:30:00;;;;;;;10.98;9.80;;;;;;;;;;5030732;28;20074;-86
2021/07/24 10:32:44;;;;;;;10.30;9.20;;;;;;;;;;4985810;28;20121;-85
2021/07/24 10:35:10;;;;;;;10.95;8.57;;;;;;;;;;4997819;28;20113;-86
2021/07/24 10:37:39;;;;;;;12.40;10.00;;;;;;;;;;4965417;28;20583;-86
2021/07/24 10:40:24;;;;;;;12.30;10.00;;;;;;;;;;5030899;28;20518;-86
2021/07/24 10:42:51;;;;;;;10.57;9.43;;;;;;;;;;5032730;28;20041;-86
2021/07/24 10:45:32;;;;;;;11.93;9.75;;;;;;;;;;5011781;28;20037;-88
2021/07/24 10:48:16;;;;;;;10.90;9.15;;;;;;;;;;4998145;28;20115;-89
2021/07/24 10:50:54;;;;;;;10.68;9.27;;;;;;;;;;5011056;28;20043;-89
2021/07/24 10:53:28;;;;;;;10.48;9.32;;;;;;;;;;5029686;28;20021;-89
2021/07/24 10:55:55;;;;;;;10.65;8.93;;;;;;;;;;5000418;28;20041;-88
2021/07/24 10:58:25;;;;;;;11.75;9.73;;;;;;;;;;4981781;28;20026;-87
2021/07/24 11:00:54;;;;;;;12.38;10.15;;;;;;;;;;4981771;28;20104;-86
2021/07/24 11:03:46;;;;;;;15.10;10.23;;;;;;;;;;4981281;28;20030;-87
2021/07/24 11:06:21;;;;;;;12.18;9.60;;;;;;;;;;4997775;28;20456;-86
2021/07/24 11:09:07;;;;;;;13.25;10.15;;;;;;;;;;4981390;28;20151;-86
2021/07/24 11:11:36;;;;;;;15.50;10.90;;;;;;;;;;4966015;28;20084;-87
2021/07/24 11:14:04;;;;;;;16.00;12.07;;;;;;;;;;5011356;28;20038;-87
2021/07/24 11:17:06;;;;;;;15.57;10.40;;;;;;;;;;5010381;28;20484;-88
2021/07/24 11:19:33;;;;;;;14.27;10.38;;;;;;;;;;5026481;28;20026;-87
2021/07/24 11:22:24;;;;;;;15.57;10.50;;;;;;;;;;5010408;28;20046;-87
2021/07/24 11:24:49;;;;;;;14.65;10.43;;;;;;;;;;5010003;28;20520;-91
2021/07/24 11:27:30;;;;;;;14.55;10.23;;;;;;;;;;5040119;28;20076;-91
2021/07/24 11:30:04;;;;;;;16.00;11.00;;;;;;;;;;5017103;28;20037;-94
2021/07/24 11:32:34;;;;;;;13.35;10.63;;;;;;;;;;5000633;28;20041;-91
2021/07/24 11:35:02;;;;;;;16.55;10.48;;;;;;;;;;4997224;28;20041;-90
2021/07/24 11:37:35;;;;;;;12.55;10.32;;;;;;;;;;4993298;28;20065;-90
2021/07/24 11:40:06;;;;;;;10.90;9.80;;;;;;;;;;5017138;28;20041;-90
2021/07/24 11:42:35;;;;;;;14.45;10.32;;;;;;;;;;5049893;28;20147;-91
2021/07/24 11:45:01;;;;;;;11.73;9.68;;;;;;;;;;4997112;28;20029;-91
2021/07/24 11:47:30;;;;;;;12.88;9.85;;;;;;;;;;4996950;28;20497;-91
2021/07/24 11:50:17;;;;;;;12.10;9.98;;;;;;;;;;5012857;28;20037;-90
2021/07/24 11:52:47;;;;;;;14.13;10.27;;;;;;;;;;5029490;28;20103;-91
2021/07/24 11:55:28;;;;;;;15.95;12.10;;;;;;;;;;4997186;28;20041;-90
2021/07/24 11:58:01;;;;;;;18.17;11.10;;;;;;;;;;4997548;28;20030;-87
2021/07/24 12:00:32;;;;;;;15.63;11.88;;;;;;;;;;4964450;28;20432;-87
2021/07/24 12:03:19;;;;;;;15.27;10.95;;;;;;;;;;4963989;28;20132;-87
2021/07/24 12:05:49;;;;;;;11.52;9.75;;;;;;;;;;4997014;28;20067;-86
2021/07/24 12:08:22;;;;;;;14.60;10.68;;;;;;;;;;4993462;28;20058;-89
2021/07/24 12:10:49;;;;;;;14.90;10.98;;;;;;;;;;5015087;28;20034;-86
2021/07/24 12:13:22;;;;;;;14.57;11.30;;;;;;;;;;5009520;28;20042;-89
2021/07/24 12:15:58;;;;;;;13.80;10.93;;;;;;;;;;4993052;28;20081;-88
2021/07/24 12:18:34;;;;;;;14.27;11.07;;;;;;;;;;5009846;28;20035;-90
2021/07/24 12:21:32;;;;;;;13.50;11.52;;;;;;;;;;4993333;28;20501;-89
2021/07/24 12:23:59;;;;;;;14.95;11.48;;;;;;;;;;4987223;28;20527;-90
2021/07/24 12:26:32;;;;;;;16.40;11.30;;;;;;;;;;4960918;28;20073;-90
2021/07/24 12:28:58;;;;;;;15.00;10.80;;;;;;;;;;4993576;28;20413;-88
2021/07/24 12:31:31;;;;;;;12.88;11.50;;;;;;;;;;4960745;28;20038;-89
2021/07/24 12:33:58;;;;;;;;;;;;;;;;;;4976996;28;20037;-90
2021/07/24 12:36:26;;;;;;;15.55;10.68;;;;;;;;;;5015720;28;19913;-89
2021/07/24 12:38:54;;;;;;;12.57;11.23;;;;;;;;;;5015850;28;20035;-87
2021/07/24 12:41:34;;;;;;;13.20;11.88;;;;;;;;;;5016006;28;20506;-87
2021/07/24 12:44:01;;;;;;;15.18;11.23;;;;;;;;;;5015690;28;20030;-87
2021/07/24 12:46:27;;;;;;;13.23;11.00;;;;;;;;;;5031305;28;20033;-87
2021/07/24 12:48:56;;;;;;;12.20;10.90;;;;;;;;;;5015322;28;20506;-86
2021/07/24 12:51:42;;;;;;;15.43;10.70;;;;;;;;;;4963304;28;20076;-89
2021/07/24 12:54:13;;;;;;;11.48;10.05;;;;;;;;;;4995790;28;20124;-90
2021/07/24 12:56:43;;;;;;;14.68;12.35;;;;;;;;;;5002911;28;20464;-90
2021/07/24 12:59:11;;;;;;;48.97;41.35;;;;;;;;;;5000050;28;20042;-86
2021/07/24 13:01:49;;;;;;;59.97;49.97;;;;;;;;;;4996001;28;20034;-86
2021/07/24 13:04:17;;;;;;;42.70;37.65;;;;;;;;;;4994488;28;20037;-88
2021/07/24 13:06:44;;;;;;;52.42;42.42;;;;;;;;;;4979259;28;20041;-85
2021/07/24 13:09:13;;;;;;;50.35;41.90;;;;;;;;;;5011440;28;20030;-87
2021/07/24 13:11:39;;;;;;;49.90;40.88;;;;;;;;;;5028701;28;20050;-87
2021/07/24 13:14:17;;;;;;;44.88;38.83;;;;;;;;;;5028489;28;20034;-88
2021/07/24 13:16:43;;;;;;;41.28;34.40;;;;;;;;;;5010301;28;20547;-87
2021/07/24 13:19:09;;;;;;;37.40;31.92;;;;;;;;;;4962298;28;20030;-85
2021/07/24 13:21:37;;;;;;;36.22;28.23;;;;;;;;;;4994912;28;20535;-87
2021/07/24 13:24:07;;;;;;;35.20;28.30;;;;;;;;;;5011120;28;20070;-86
2021/07/24 13:28:14;;;;;;;28.42;24.52;;;;;;;;;;5009691;28;20034;-85
2021/07/24 13:29:22;;;;;;;28.08;22.88;;;;;;;;;;5024305;28;20030;-85
2021/07/24 13:31:47;;;;;;;23.70;20.65;;;;;;;;;;4994487;28;20061;-87
2021/07/24 13:34:13;;;;;;;22.17;19.35;;;;;;;;;;5006910;28;20390;-86
2021/07/24 13:36:42;;;;;;;25.13;20.38;;;;;;;;;;5001688;28;20120;-85
2021/07/24 13:39:11;;;;;;;23.73;18.48;;;;;;;;;;4998067;28;20057;-87
2021/07/24 13:41:37;;;;;;;21.02;17.80;;;;;;;;;;5014767;28;20495;-86
2021/07/24 13:44:03;;;;;;;19.58;16.77;;;;;;;;;;4998058;28;20045;-83
2021/07/24 13:46:29;;;;;;;21.67;17.35;;;;;;;;;;4997160;28;20036;-85
2021/07/24 13:48:55;;;;;;;19.10;16.35;;;;;;;;;;5014340;28;20029;-87
2021/07/24 13:51:35;;;;;;;19.70;16.00;;;;;;;;;;5013619;28;20126;-85
2021/07/24 13:54:01;;;;;;;20.95;14.80;;;;;;;;;;5000301;28;20037;-85
2021/07/24 13:56:27;;;;;;;18.48;16.27;;;;;;;;;;4990438;28;20045;-84
2021/07/24 13:58:52;;;;;;;18.30;16.40;;;;;;;;;;5008497;28;20035;-85
2021/07/24 14:01:18;;;;;;;17.38;14.93;;;;;;;;;;4976085;28;20061;-84
2021/07/24 14:03:43;;;;;;;18.10;14.65;;;;;;;;;;4977824;28;20065;-86
2021/07/24 14:06:09;;;;;;;18.00;14.23;;;;;;;;;;5001886;28;20064;-85
2021/07/24 14:08:34;;;;;;;17.05;13.93;;;;;;;;;;4958954;28;20405;-84
2021/07/24 14:11:17;;;;;;;15.05;13.43;;;;;;;;;;5007421;28;20066;-84
2021/07/24 14:13:43;;;;;;;16.00;13.27;;;;;;;;;;4990313;28;20045;-84
2021/07/24 14:16:12;;;;;;;16.90;13.27;;;;;;;;;;5010773;28;20042;-83
2021/07/24 14:18:38;;;;;;;16.17;12.45;;;;;;;;;;5010566;28;20057;-84
2021/07/24 14:21:05;;;;;;;14.77;12.43;;;;;;;;;;4996760;28;20034;-84
2021/07/24 14:23:30;;;;;;;13.65;11.68;;;;;;;;;;4998406;28;20058;-83
2021/07/24 14:25:59;;;;;;;14.10;11.93;;;;;;;;;;4981099;28;20125;-82
2021/07/24 14:28:25;;;;;;;14.60;11.82;;;;;;;;;;4997095;28;20104;-82
2021/07/24 14:30:50;;;;;;;14.68;13.18;;;;;;;;;;4977775;28;20044;-83
2021/07/24 14:33:16;;;;;;;16.75;12.65;;;;;;;;;;4993975;28;20030;-83
2021/07/24 14:35:42;;;;;;;16.08;14.07;;;;;;;;;;5009286;28;20041;-84
2021/07/24 14:38:08;;;;;;;23.35;16.77;;;;;;;;;;4998277;28;20037;-83
2021/07/24 14:40:33;;;;;;;24.52;20.83;;;;;;;;;;5016989;28;20041;-84